Green Valley, Arizona
Current Conditions -  °F | °C
As of 6:53 PM on Monday 24 Nov 2014 (Local Time) from KTUS Reporting Station
Clear Clear  
Wind Chill: 53°   Ceiling: Unl
Heat Index: 53°   Visibility: 10mi
Dew Point:   Wind: 3mph
Humidity: 14%   Direction: 270°W
Pressure: 30.24"   Gusts: NA
Location:  31.91°N, 110.98°W
Report Text: KTUS 250153Z 27003KT 10SM CLR 12/M15 A3024 RMK AO2 SLP232 T01171150
Loading
Personal Weather Stations






























Interactive Weather Map New forecast layout! Learn more

10-Day Weather Forecast

Advertisements
Track Severe Weather on mobile